Blaine, Maine
Current Conditions -  °F | °C
As of 2:55 PM on Wednesday 28 Jan 2015 (Local Time) from KPQI Reporting Station
Overcast Overcast  
Wind Chill:   Ceiling: 11000
Heat Index: 14°   Visibility: 3mi
Dew Point:   Wind: 9mph
Humidity: 57%   Direction: 320°NW
Pressure: 29.91"   Gusts: NA
Location:  46.5°N, 67.87°W
Report Text: KPQI 281955Z AUTO 32008KT 3SM FEW050 SCT055 OVC110 M10/M17 A2991 RMK AO1 VIS 1 1/4V5
Loading
Personal Weather Stations






























Interactive Weather Map New forecast layout! Learn more

10-Day Weather Forecast

Advertisements
Track Severe Weather on mobile